EWG5CN EDDH-LOWS
Flight info
| Callsign | EWG5CN |
|---|---|
| Flight time | N/A |
| Altitude | 37000 |
| Route | AMLUH2C AMLUH M852 DENIX DCT ZUCKA DCT SODRO T703 ARMUT/N0426F310 T703 ARBAX/N0429F300 T108 OSTES/N0428F310 T700 BADIT BADIT2R |
| Aircraft | A319/M-SDE3FGHIRWY/LB1 |
Departure
| Time | 2026-04-20 19:17 |
|---|---|
| Airport | Hamburg Helmut Schmidt Airport (EDDH) |
Arrival
| Time | N/A |
|---|---|
| Airport | Salzburg Airport (LOWS) |
| Time | Latitude | Longitude | Altitude | Speed | Heading |
|---|---|---|---|---|---|
| 2026-04-20 18:33 | 53.63074 | 10.00380 | 49 ft | 0 kts | 94° |
| 2026-04-20 18:59 | 53.63075 | 10.00356 | 48 ft | 4 kts | 96° |
| 2026-04-20 18:59 | 53.63079 | 10.00311 | 48 ft | 4 kts | 105° |
| 2026-04-20 18:59 | 53.63089 | 10.00273 | 47 ft | 4 kts | 143° |
| 2026-04-20 19:00 | 53.63100 | 10.00264 | 45 ft | 0 kts | 184° |
| 2026-04-20 19:04 | 53.63099 | 10.00264 | 43 ft | 1 kts | 184° |
| 2026-04-20 19:04 | 53.63066 | 10.00258 | 47 ft | 8 kts | 193° |
| 2026-04-20 19:04 | 53.63005 | 10.00199 | 47 ft | 10 kts | 216° |
| 2026-04-20 19:05 | 53.62978 | 10.00168 | 48 ft | 0 kts | 214° |
| 2026-04-20 19:05 | 53.62967 | 10.00155 | 45 ft | 4 kts | 214° |
| 2026-04-20 19:05 | 53.62930 | 10.00113 | 47 ft | 8 kts | 212° |
| 2026-04-20 19:05 | 53.62874 | 10.00051 | 47 ft | 11 kts | 218° |
| 2026-04-20 19:06 | 53.62803 | 9.99959 | 46 ft | 15 kts | 213° |
| 2026-04-20 19:06 | 53.62699 | 9.99867 | 45 ft | 18 kts | 207° |
| 2026-04-20 19:06 | 53.62634 | 9.99722 | 45 ft | 16 kts | 259° |
| 2026-04-20 19:06 | 53.62612 | 9.99528 | 47 ft | 18 kts | 259° |
| 2026-04-20 19:07 | 53.62586 | 9.99303 | 47 ft | 21 kts | 259° |
| 2026-04-20 19:07 | 53.62557 | 9.99052 | 47 ft | 23 kts | 259° |
| 2026-04-20 19:07 | 53.62526 | 9.98775 | 47 ft | 25 kts | 259° |
| 2026-04-20 19:07 | 53.62492 | 9.98473 | 46 ft | 27 kts | 259° |
| 2026-04-20 19:08 | 53.62466 | 9.98243 | 47 ft | 17 kts | 259° |
| 2026-04-20 19:08 | 53.62426 | 9.97873 | 45 ft | 11 kts | 274° |
| 2026-04-20 19:08 | 53.62428 | 9.97861 | 45 ft | 0 kts | 283° |
| 2026-04-20 19:14 | 53.62446 | 9.97815 | 42 ft | 12 kts | 312° |
| 2026-04-20 19:14 | 53.62533 | 9.97802 | 41 ft | 12 kts | 44° |
| 2026-04-20 19:14 | 53.62537 | 9.97809 | 38 ft | 0 kts | 49° |
| 2026-04-20 19:16 | 53.62559 | 9.97852 | 41 ft | 29 kts | 49° |
| 2026-04-20 19:16 | 53.62899 | 9.98544 | 45 ft | 120 kts | 50° |
| 2026-04-20 19:17 | 53.63494 | 9.99759 | 597 ft | 135 kts | 49° |
| 2026-04-20 19:17 | 53.64100 | 10.00973 | 1388 ft | 139 kts | 48° |
| 2026-04-20 19:17 | 53.64762 | 10.02332 | 1905 ft | 160 kts | 49° |
| 2026-04-20 19:17 | 53.65518 | 10.03878 | 2387 ft | 182 kts | 52° |
| 2026-04-20 19:18 | 53.66340 | 10.05591 | 3192 ft | 187 kts | 55° |
| 2026-04-20 19:18 | 53.67171 | 10.07301 | 4208 ft | 190 kts | 54° |
| 2026-04-20 19:18 | 53.68022 | 10.09032 | 5126 ft | 195 kts | 53° |
| 2026-04-20 19:18 | 53.68891 | 10.10796 | 6005 ft | 200 kts | 53° |
| 2026-04-20 19:19 | 53.69799 | 10.12637 | 6911 ft | 204 kts | 52° |
| 2026-04-20 19:19 | 53.70577 | 10.14647 | 7717 ft | 207 kts | 72° |
| 2026-04-20 19:19 | 53.70687 | 10.17076 | 8570 ft | 213 kts | 100° |
| 2026-04-20 19:19 | 53.70008 | 10.19385 | 9220 ft | 237 kts | 130° |
| 2026-04-20 19:20 | 53.68491 | 10.20856 | 9701 ft | 270 kts | 159° |
| 2026-04-20 19:20 | 53.66635 | 10.21738 | 10093 ft | 282 kts | 161° |
| 2026-04-20 19:20 | 53.64719 | 10.22570 | 10172 ft | 291 kts | 161° |
| 2026-04-20 19:20 | 53.62670 | 10.23449 | 10558 ft | 314 kts | 162° |
| 2026-04-20 19:21 | 53.60547 | 10.24365 | 11278 ft | 323 kts | 162° |
| 2026-04-20 19:21 | 53.58354 | 10.25323 | 12106 ft | 329 kts | 162° |
| 2026-04-20 19:21 | 53.56124 | 10.26312 | 12967 ft | 334 kts | 162° |
| 2026-04-20 19:21 | 53.53871 | 10.27322 | 13831 ft | 338 kts | 162° |
| 2026-04-20 19:22 | 53.51583 | 10.28351 | 14585 ft | 342 kts | 162° |
| 2026-04-20 19:22 | 53.49271 | 10.29390 | 15326 ft | 346 kts | 162° |
| 2026-04-20 19:22 | 53.46932 | 10.30442 | 16065 ft | 350 kts | 162° |
| 2026-04-20 19:22 | 53.44566 | 10.31503 | 16796 ft | 354 kts | 162° |
| 2026-04-20 19:23 | 53.42175 | 10.32573 | 17532 ft | 358 kts | 162° |
| 2026-04-20 19:23 | 53.39754 | 10.33657 | 18275 ft | 362 kts | 162° |
| 2026-04-20 19:23 | 53.37310 | 10.34756 | 18930 ft | 365 kts | 162° |
| 2026-04-20 19:23 | 53.34846 | 10.35869 | 19582 ft | 368 kts | 162° |
| 2026-04-20 19:24 | 53.32354 | 10.36925 | 20251 ft | 372 kts | 164° |
| 2026-04-20 19:24 | 53.29812 | 10.37844 | 20914 ft | 375 kts | 165° |
| 2026-04-20 19:24 | 53.27237 | 10.38678 | 21579 ft | 378 kts | 166° |
| 2026-04-20 19:24 | 53.24640 | 10.39479 | 22239 ft | 381 kts | 166° |
| 2026-04-20 19:25 | 53.22024 | 10.40283 | 22898 ft | 384 kts | 166° |
| 2026-04-20 19:25 | 53.19383 | 10.41112 | 23554 ft | 387 kts | 166° |
| 2026-04-20 19:25 | 53.16728 | 10.41968 | 23984 ft | 390 kts | 165° |
| 2026-04-20 19:25 | 53.14074 | 10.42838 | 24098 ft | 389 kts | 165° |
| 2026-04-20 19:26 | 53.11417 | 10.43714 | 24121 ft | 389 kts | 165° |
| 2026-04-20 19:26 | 53.08762 | 10.44593 | 24121 ft | 389 kts | 165° |
| 2026-04-20 19:26 | 53.06107 | 10.45472 | 24118 ft | 389 kts | 165° |
| 2026-04-20 19:26 | 53.03457 | 10.46352 | 24116 ft | 389 kts | 165° |
| 2026-04-20 19:27 | 53.00835 | 10.47215 | 24114 ft | 389 kts | 165° |
| 2026-04-20 19:27 | 52.98180 | 10.48084 | 24217 ft | 392 kts | 165° |
| 2026-04-20 19:27 | 52.95497 | 10.48964 | 24805 ft | 393 kts | 165° |
| 2026-04-20 19:27 | 52.92805 | 10.49849 | 25366 ft | 396 kts | 165° |
| 2026-04-20 19:28 | 52.90093 | 10.50740 | 25907 ft | 398 kts | 165° |
| 2026-04-20 19:28 | 52.87363 | 10.51635 | 26422 ft | 401 kts | 165° |
| 2026-04-20 19:28 | 52.84615 | 10.52534 | 26905 ft | 404 kts | 165° |
| 2026-04-20 19:28 | 52.81850 | 10.53432 | 27389 ft | 406 kts | 165° |
| 2026-04-20 19:29 | 52.79066 | 10.54330 | 27875 ft | 409 kts | 165° |
| 2026-04-20 19:29 | 52.76270 | 10.55232 | 28391 ft | 411 kts | 165° |
| 2026-04-20 19:29 | 52.73455 | 10.56142 | 28878 ft | 413 kts | 165° |
| 2026-04-20 19:29 | 52.70622 | 10.57059 | 29346 ft | 416 kts | 165° |
| 2026-04-20 19:30 | 52.67781 | 10.57977 | 29802 ft | 418 kts | 165° |
| 2026-04-20 19:30 | 52.64904 | 10.58904 | 30163 ft | 423 kts | 165° |
| 2026-04-20 19:30 | 52.62002 | 10.59842 | 30479 ft | 427 kts | 165° |
| 2026-04-20 19:30 | 52.59109 | 10.60778 | 30781 ft | 431 kts | 165° |
| 2026-04-20 19:31 | 52.56152 | 10.61731 | 31069 ft | 435 kts | 166° |
| 2026-04-20 19:31 | 52.53170 | 10.62687 | 31349 ft | 439 kts | 166° |
| 2026-04-20 19:31 | 52.50161 | 10.63649 | 31649 ft | 442 kts | 166° |
| 2026-04-20 19:31 | 52.47121 | 10.64615 | 31912 ft | 446 kts | 167° |
| 2026-04-20 19:32 | 52.44069 | 10.65585 | 32279 ft | 447 kts | 167° |
| 2026-04-20 19:32 | 52.41009 | 10.66559 | 32640 ft | 449 kts | 167° |
| 2026-04-20 19:32 | 52.37935 | 10.67537 | 32966 ft | 451 kts | 168° |
| 2026-04-20 19:32 | 52.34853 | 10.68519 | 33290 ft | 453 kts | 167° |
| 2026-04-20 19:33 | 52.31748 | 10.69506 | 33568 ft | 456 kts | 168° |
| 2026-04-20 19:33 | 52.28628 | 10.70496 | 33901 ft | 458 kts | 169° |
| 2026-04-20 19:33 | 52.25493 | 10.71494 | 34250 ft | 459 kts | 169° |
| 2026-04-20 19:33 | 52.22354 | 10.72491 | 34529 ft | 460 kts | 169° |
| 2026-04-20 19:34 | 52.19206 | 10.73486 | 34877 ft | 460 kts | 169° |
| 2026-04-20 19:34 | 52.16064 | 10.74476 | 35082 ft | 461 kts | 169° |
| 2026-04-20 19:34 | 52.12908 | 10.75470 | 35133 ft | 461 kts | 169° |
| 2026-04-20 19:35 | 52.06638 | 10.77438 | 35138 ft | 463 kts | 170° |
| 2026-04-20 19:35 | 52.00322 | 10.79422 | 35131 ft | 461 kts | 170° |
| 2026-04-20 19:36 | 51.94019 | 10.81392 | 35113 ft | 462 kts | 170° |
| 2026-04-20 19:36 | 51.87704 | 10.83353 | 35118 ft | 462 kts | 170° |
| 2026-04-20 19:37 | 51.81374 | 10.85318 | 35466 ft | 464 kts | 170° |
| 2026-04-20 19:37 | 51.78208 | 10.86298 | 35800 ft | 463 kts | 170° |
| 2026-04-20 19:37 | 51.75045 | 10.87280 | 36143 ft | 462 kts | 170° |
| 2026-04-20 19:37 | 51.71894 | 10.88259 | 36457 ft | 461 kts | 170° |
| 2026-04-20 19:38 | 51.68750 | 10.89305 | 36756 ft | 461 kts | 166° |
| 2026-04-20 19:38 | 51.65713 | 10.90992 | 37005 ft | 463 kts | 157° |
| 2026-04-20 19:38 | 51.62811 | 10.93249 | 37100 ft | 462 kts | 154° |
| 2026-04-20 19:39 | 51.57055 | 10.97810 | 37112 ft | 460 kts | 154° |
| 2026-04-20 19:39 | 51.51305 | 11.02340 | 37093 ft | 461 kts | 155° |
| 2026-04-20 19:40 | 51.45536 | 11.06874 | 37098 ft | 462 kts | 155° |
| 2026-04-20 19:40 | 51.39801 | 11.11367 | 37100 ft | 461 kts | 155° |
| 2026-04-20 19:41 | 51.34036 | 11.15862 | 37096 ft | 461 kts | 155° |
| 2026-04-20 19:41 | 51.28270 | 11.20348 | 37095 ft | 461 kts | 155° |
| 2026-04-20 19:42 | 51.22493 | 11.24840 | 37086 ft | 462 kts | 155° |
| 2026-04-20 19:42 | 51.16716 | 11.29319 | 37080 ft | 463 kts | 155° |
| 2026-04-20 19:43 | 51.10918 | 11.33791 | 37084 ft | 463 kts | 155° |
| 2026-04-20 19:43 | 51.05113 | 11.38249 | 37089 ft | 464 kts | 155° |
| 2026-04-20 19:44 | 50.99308 | 11.42706 | 37089 ft | 464 kts | 155° |
| 2026-04-20 19:44 | 50.93485 | 11.47161 | 37092 ft | 464 kts | 155° |
| 2026-04-20 19:45 | 50.87664 | 11.51611 | 37092 ft | 464 kts | 155° |
| 2026-04-20 19:45 | 50.81850 | 11.56053 | 37089 ft | 464 kts | 155° |
| 2026-04-20 19:46 | 50.76028 | 11.60471 | 37088 ft | 464 kts | 156° |
| 2026-04-20 19:46 | 50.70198 | 11.64874 | 37073 ft | 465 kts | 156° |
| 2026-04-20 19:47 | 50.64352 | 11.69281 | 37075 ft | 466 kts | 156° |
| 2026-04-20 19:47 | 50.58537 | 11.73668 | 37086 ft | 467 kts | 156° |
| 2026-04-20 19:48 | 50.52677 | 11.78078 | 37089 ft | 467 kts | 156° |
| 2026-04-20 19:48 | 50.46812 | 11.82469 | 37095 ft | 467 kts | 156° |
| 2026-04-20 19:49 | 50.40896 | 11.86662 | 37087 ft | 466 kts | 158° |
| 2026-04-20 19:49 | 50.34924 | 11.90614 | 37091 ft | 466 kts | 159° |
| 2026-04-20 19:50 | 50.28947 | 11.94549 | 37092 ft | 466 kts | 159° |
| 2026-04-20 19:50 | 50.22996 | 11.98541 | 37076 ft | 466 kts | 158° |
| 2026-04-20 19:51 | 50.17043 | 12.02579 | 37085 ft | 466 kts | 158° |
| 2026-04-20 19:51 | 50.12091 | 12.05915 | 37082 ft | 466 kts | 159° |
| 2026-04-20 19:52 | 50.05159 | 12.10558 | 36639 ft | 469 kts | 159° |
| 2026-04-20 19:52 | 50.02171 | 12.12548 | 36138 ft | 467 kts | 159° |
| 2026-04-20 19:52 | 49.99179 | 12.14534 | 35634 ft | 468 kts | 159° |
| 2026-04-20 19:52 | 49.96180 | 12.16519 | 35166 ft | 469 kts | 159° |
| 2026-04-20 19:53 | 49.94157 | 12.17858 | 34851 ft | 469 kts | 159° |
| 2026-04-20 19:53 | 49.91189 | 12.19828 | 34395 ft | 469 kts | 159° |
| 2026-04-20 19:53 | 49.88194 | 12.21817 | 33915 ft | 467 kts | 159° |
| 2026-04-20 19:53 | 49.85209 | 12.23790 | 33372 ft | 465 kts | 159° |
| 2026-04-20 19:54 | 49.82245 | 12.25744 | 32839 ft | 462 kts | 160° |
| 2026-04-20 19:54 | 49.79292 | 12.27689 | 32324 ft | 460 kts | 160° |
| 2026-04-20 19:54 | 49.76370 | 12.29617 | 32051 ft | 453 kts | 160° |
| 2026-04-20 19:55 | 49.70756 | 12.34024 | 31677 ft | 459 kts | 147° |
| 2026-04-20 19:55 | 49.68100 | 12.36717 | 31178 ft | 453 kts | 158° |
| 2026-04-20 19:55 | 49.65141 | 12.38099 | 30694 ft | 440 kts | 175° |
| 2026-04-20 19:55 | 49.62130 | 12.38833 | 30224 ft | 437 kts | 175° |
| 2026-04-20 19:56 | 49.59141 | 12.39647 | 29650 ft | 436 kts | 174° |
| 2026-04-20 19:56 | 49.56133 | 12.40559 | 29080 ft | 445 kts | 173° |
| 2026-04-20 19:56 | 49.53090 | 12.41547 | 28509 ft | 449 kts | 172° |
| 2026-04-20 19:56 | 49.50030 | 12.42579 | 27929 ft | 451 kts | 172° |
| 2026-04-20 19:57 | 49.46965 | 12.43619 | 27397 ft | 452 kts | 172° |
| 2026-04-20 19:57 | 49.43929 | 12.44634 | 26872 ft | 452 kts | 172° |
| 2026-04-20 19:57 | 49.40856 | 12.45642 | 26325 ft | 452 kts | 172° |
| 2026-04-20 19:57 | 49.37780 | 12.46634 | 25688 ft | 452 kts | 172° |
| 2026-04-20 19:58 | 49.34705 | 12.47616 | 25066 ft | 452 kts | 172° |
| 2026-04-20 19:58 | 49.31629 | 12.48595 | 24538 ft | 452 kts | 172° |
| 2026-04-20 19:58 | 49.28562 | 12.49572 | 24034 ft | 446 kts | 172° |
| 2026-04-20 19:58 | 49.25544 | 12.50536 | 23544 ft | 442 kts | 172° |
| 2026-04-20 19:59 | 49.22546 | 12.51495 | 22977 ft | 437 kts | 172° |
| 2026-04-20 19:59 | 49.19595 | 12.52441 | 22439 ft | 430 kts | 172° |
| 2026-04-20 19:59 | 49.16688 | 12.53369 | 21933 ft | 422 kts | 172° |
| 2026-04-20 19:59 | 49.13844 | 12.54274 | 21483 ft | 414 kts | 172° |
| 2026-04-20 20:00 | 49.11039 | 12.55162 | 21030 ft | 408 kts | 172° |
| 2026-04-20 20:00 | 49.08277 | 12.56037 | 20591 ft | 403 kts | 172° |
| 2026-04-20 20:00 | 49.05548 | 12.56904 | 20127 ft | 398 kts | 173° |
| 2026-04-20 20:00 | 49.02853 | 12.57759 | 19688 ft | 393 kts | 172° |
| 2026-04-20 20:01 | 49.00190 | 12.58601 | 19269 ft | 388 kts | 172° |
| 2026-04-20 20:01 | 48.97559 | 12.59431 | 18854 ft | 383 kts | 173° |
| 2026-04-20 20:01 | 48.94964 | 12.60248 | 18441 ft | 378 kts | 172° |
| 2026-04-20 20:01 | 48.92403 | 12.61053 | 17978 ft | 373 kts | 172° |
| 2026-04-20 20:02 | 48.89879 | 12.61849 | 17504 ft | 369 kts | 172° |
| 2026-04-20 20:02 | 48.87382 | 12.62635 | 17042 ft | 364 kts | 173° |
| 2026-04-20 20:02 | 48.84913 | 12.63407 | 16589 ft | 360 kts | 173° |
| 2026-04-20 20:02 | 48.82497 | 12.64166 | 16135 ft | 357 kts | 173° |
| 2026-04-20 20:03 | 48.80079 | 12.64928 | 15695 ft | 354 kts | 173° |
| 2026-04-20 20:03 | 48.77675 | 12.65685 | 15260 ft | 351 kts | 173° |
| 2026-04-20 20:03 | 48.75296 | 12.66431 | 14829 ft | 348 kts | 173° |
| 2026-04-20 20:03 | 48.72932 | 12.67173 | 14410 ft | 345 kts | 173° |
| 2026-04-20 20:04 | 48.70588 | 12.67907 | 13994 ft | 343 kts | 173° |
| 2026-04-20 20:04 | 48.68259 | 12.68584 | 13537 ft | 339 kts | 174° |
| 2026-04-20 20:04 | 48.65947 | 12.69189 | 13129 ft | 335 kts | 175° |
| 2026-04-20 20:04 | 48.63661 | 12.69759 | 12729 ft | 331 kts | 175° |
| 2026-04-20 20:05 | 48.61402 | 12.70317 | 12324 ft | 327 kts | 175° |
| 2026-04-20 20:05 | 48.59167 | 12.70866 | 11922 ft | 323 kts | 176° |
| 2026-04-20 20:05 | 48.56960 | 12.71357 | 11536 ft | 319 kts | 176° |
| 2026-04-20 20:05 | 48.54774 | 12.71813 | 11183 ft | 314 kts | 176° |
| 2026-04-20 20:06 | 48.52632 | 12.72257 | 10927 ft | 307 kts | 176° |
| 2026-04-20 20:06 | 48.50539 | 12.72693 | 10682 ft | 300 kts | 176° |
| 2026-04-20 20:06 | 48.48521 | 12.73118 | 10433 ft | 294 kts | 176° |
| 2026-04-20 20:06 | 48.46518 | 12.73539 | 10186 ft | 288 kts | 176° |
| 2026-04-20 20:07 | 48.44559 | 12.73952 | 9936 ft | 282 kts | 176° |
| 2026-04-20 20:07 | 48.42633 | 12.74360 | 9664 ft | 278 kts | 176° |
| 2026-04-20 20:07 | 48.40726 | 12.74763 | 9348 ft | 275 kts | 176° |
| 2026-04-20 20:07 | 48.38846 | 12.75284 | 9011 ft | 275 kts | 170° |
| 2026-04-20 20:08 | 48.36992 | 12.75969 | 8674 ft | 274 kts | 170° |
| 2026-04-20 20:08 | 48.35147 | 12.76647 | 8351 ft | 272 kts | 170° |
| 2026-04-20 20:08 | 48.33308 | 12.77317 | 7988 ft | 272 kts | 170° |
| 2026-04-20 20:08 | 48.31472 | 12.77984 | 7638 ft | 271 kts | 170° |
| 2026-04-20 20:09 | 48.29646 | 12.78645 | 7303 ft | 269 kts | 170° |
| 2026-04-20 20:09 | 48.27829 | 12.79301 | 6971 ft | 268 kts | 170° |
| 2026-04-20 20:09 | 48.26022 | 12.79955 | 6615 ft | 267 kts | 169° |
| 2026-04-20 20:09 | 48.24221 | 12.80606 | 6260 ft | 266 kts | 169° |
| 2026-04-20 20:10 | 48.22423 | 12.81253 | 5886 ft | 265 kts | 169° |
| 2026-04-20 20:10 | 48.20632 | 12.81899 | 5522 ft | 264 kts | 169° |
| 2026-04-20 20:10 | 48.18870 | 12.82536 | 5160 ft | 264 kts | 169° |
| 2026-04-20 20:10 | 48.17091 | 12.83184 | 4825 ft | 262 kts | 169° |
| 2026-04-20 20:11 | 48.15318 | 12.83831 | 4461 ft | 262 kts | 169° |
| 2026-04-20 20:11 | 48.13551 | 12.84476 | 4177 ft | 259 kts | 169° |
| 2026-04-20 20:11 | 48.11823 | 12.85102 | 4007 ft | 252 kts | 168° |
| 2026-04-20 20:11 | 48.10127 | 12.85711 | 3982 ft | 247 kts | 169° |
| 2026-04-20 20:12 | 48.08479 | 12.86305 | 3994 ft | 242 kts | 170° |
| 2026-04-20 20:12 | 48.06852 | 12.86893 | 3989 ft | 236 kts | 169° |
| 2026-04-20 20:12 | 48.05300 | 12.87457 | 3989 ft | 224 kts | 169° |
| 2026-04-20 20:13 | 48.02347 | 12.88521 | 4000 ft | 212 kts | 170° |
| 2026-04-20 20:13 | 48.00975 | 12.89018 | 3985 ft | 196 kts | 170° |
| 2026-04-20 20:13 | 47.99653 | 12.89302 | 3988 ft | 189 kts | 182° |
| 2026-04-20 20:13 | 47.98346 | 12.89332 | 3992 ft | 187 kts | 183° |
| 2026-04-20 20:14 | 47.97052 | 12.89373 | 3992 ft | 186 kts | 181° |
| 2026-04-20 20:14 | 47.95824 | 12.89920 | 3987 ft | 179 kts | 159° |
| 2026-04-20 20:14 | 47.94750 | 12.90614 | 3985 ft | 159 kts | 161° |
| 2026-04-20 20:14 | 47.93758 | 12.91246 | 3986 ft | 152 kts | 160° |
| 2026-04-20 20:15 | 47.92803 | 12.91853 | 3986 ft | 148 kts | 160° |
| 2026-04-20 20:15 | 47.91868 | 12.92446 | 3893 ft | 148 kts | 161° |
| 2026-04-20 20:15 | 47.90929 | 12.93043 | 3746 ft | 146 kts | 161° |
| 2026-04-20 20:15 | 47.89997 | 12.93635 | 3559 ft | 145 kts | 161° |
| 2026-04-20 20:16 | 47.89074 | 12.94222 | 3378 ft | 144 kts | 160° |
| 2026-04-20 20:16 | 47.88156 | 12.94804 | 3177 ft | 143 kts | 161° |
| 2026-04-20 20:16 | 47.87242 | 12.95383 | 2977 ft | 144 kts | 163° |
| 2026-04-20 20:16 | 47.86318 | 12.95970 | 2790 ft | 145 kts | 162° |
| 2026-04-20 20:17 | 47.85392 | 12.96557 | 2573 ft | 144 kts | 161° |
| 2026-04-20 20:17 | 47.84506 | 12.97231 | 2373 ft | 145 kts | 140° |
| 2026-04-20 20:17 | 47.83824 | 12.98283 | 2454 ft | 140 kts | 131° |
| 2026-04-20 20:17 | 47.83188 | 12.99395 | 2374 ft | 138 kts | 129° |
| 2026-04-20 20:18 | 47.82535 | 13.00489 | 2369 ft | 145 kts | 135° |
| 2026-04-20 20:18 | 47.81837 | 13.01571 | 2360 ft | 143 kts | 134° |
| 2026-04-20 20:18 | 47.81150 | 13.02650 | 2347 ft | 146 kts | 134° |
| 2026-04-20 20:18 | 47.80439 | 13.03746 | 2323 ft | 147 kts | 135° |
| 2026-04-20 20:19 | 47.79711 | 13.04796 | 2332 ft | 144 kts | 135° |
| 2026-04-20 20:19 | 47.79003 | 13.05860 | 2355 ft | 143 kts | 134° |
| 2026-04-20 20:19 | 47.78296 | 13.06926 | 2277 ft | 147 kts | 139° |
| 2026-04-20 20:19 | 47.77436 | 13.07686 | 2257 ft | 144 kts | 163° |
| 2026-04-20 20:20 | 47.76459 | 13.07756 | 2275 ft | 140 kts | 195° |
| 2026-04-20 20:20 | 47.75668 | 13.07030 | 2337 ft | 132 kts | 235° |
| 2026-04-20 20:20 | 47.75330 | 13.05806 | 2357 ft | 127 kts | 265° |
| 2026-04-20 20:20 | 47.75312 | 13.04515 | 2341 ft | 124 kts | 278° |
| 2026-04-20 20:21 | 47.75524 | 13.03279 | 2148 ft | 124 kts | 299° |
| 2026-04-20 20:21 | 47.76071 | 13.02327 | 1978 ft | 124 kts | 326° |
| 2026-04-20 20:21 | 47.76855 | 13.01853 | 1838 ft | 125 kts | 342° |
| 2026-04-20 20:21 | 47.77727 | 13.01400 | 1675 ft | 135 kts | 337° |
| 2026-04-20 20:22 | 47.78573 | 13.00869 | 1501 ft | 128 kts | 337° |
| 2026-04-20 20:22 | 47.79435 | 13.00314 | 2216 ft | 140 kts | 336° |
| 2026-04-20 20:22 | 47.80367 | 12.99785 | 2976 ft | 150 kts | 336° |
| 2026-04-20 20:22 | 47.81429 | 12.99261 | 3352 ft | 172 kts | 338° |
| 2026-04-20 20:23 | 47.82615 | 12.98656 | 3640 ft | 193 kts | 338° |
| 2026-04-20 20:23 | 47.83905 | 12.97975 | 4142 ft | 200 kts | 338° |
| 2026-04-20 20:23 | 47.85231 | 12.97273 | 4763 ft | 203 kts | 337° |
| 2026-04-20 20:23 | 47.86570 | 12.96573 | 5427 ft | 205 kts | 337° |
| 2026-04-20 20:24 | 47.87928 | 12.95870 | 5903 ft | 209 kts | 338° |
| 2026-04-20 20:24 | 47.89304 | 12.95166 | 5981 ft | 208 kts | 338° |
| 2026-04-20 20:24 | 47.90674 | 12.94472 | 5987 ft | 208 kts | 338° |
| 2026-04-20 20:24 | 47.92039 | 12.93776 | 5992 ft | 207 kts | 338° |
| 2026-04-20 20:25 | 47.93404 | 12.93085 | 5994 ft | 207 kts | 338° |
| 2026-04-20 20:25 | 47.94771 | 12.92403 | 5992 ft | 208 kts | 338° |
| 2026-04-20 20:25 | 47.96142 | 12.91723 | 5990 ft | 207 kts | 338° |
| 2026-04-20 20:25 | 47.97507 | 12.91046 | 5990 ft | 206 kts | 338° |
| 2026-04-20 20:26 | 47.98830 | 12.90233 | 5991 ft | 205 kts | 330° |
| 2026-04-20 20:26 | 48.00187 | 12.89582 | 5980 ft | 212 kts | 356° |
| 2026-04-20 20:26 | 48.01614 | 12.90249 | 6001 ft | 220 kts | 22° |
| 2026-04-20 20:26 | 48.02955 | 12.91262 | 5906 ft | 209 kts | 22° |
| 2026-04-20 20:27 | 48.04193 | 12.92209 | 5775 ft | 197 kts | 23° |
| 2026-04-20 20:27 | 48.05444 | 12.92891 | 5622 ft | 182 kts | 359° |
| 2026-04-20 20:27 | 48.06634 | 12.92613 | 5358 ft | 172 kts | 329° |
| 2026-04-20 20:27 | 48.07397 | 12.91309 | 5080 ft | 167 kts | 288° |
| 2026-04-20 20:28 | 48.07445 | 12.90171 | 4890 ft | 169 kts | 261° |
| 2026-04-20 20:28 | 48.06496 | 12.88338 | 4540 ft | 178 kts | 213° |
| 2026-04-20 20:28 | 48.05268 | 12.88039 | 4300 ft | 188 kts | 174° |